SCF1873 ZUUU-ZGGG
Flight info
| Callsign | SCF1873 |
|---|---|
| Flight time | 2h 2m |
| Altitude | 31100 |
| Route | IDBOR9W IDBOR B330 KWE W181 DUDIT A599 GYA GYA8 |
| Aircraft | A320/M-SDE3FGHIRWY/LB1 |
Departure
| Time | 2026-04-28 11:25 |
|---|---|
| Airport | Chengdu Shuangliu International Airport (ZUUU) |
Arrival
| Time | 2026-04-28 13:28 |
|---|---|
| Airport | Guangzhou Baiyun International Airport (ZGGG) |
| Time | Latitude | Longitude | Altitude | Speed | Heading |
|---|---|---|---|---|---|
| 2026-04-28 11:12 | 30.58601 | 103.95451 | 1647 ft | 0 kts | 22° |
| 2026-04-28 11:20 | 30.58600 | 103.95451 | 1647 ft | 0 kts | 22° |
| 2026-04-28 11:21 | 30.58622 | 103.95460 | 1647 ft | 5 kts | 14° |
| 2026-04-28 11:22 | 30.58664 | 103.95448 | 1647 ft | 9 kts | 320° |
| 2026-04-28 11:22 | 30.58739 | 103.95428 | 1647 ft | 17 kts | 19° |
| 2026-04-28 11:22 | 30.58858 | 103.95482 | 1647 ft | 19 kts | 22° |
| 2026-04-28 11:22 | 30.58978 | 103.95539 | 1647 ft | 18 kts | 21° |
| 2026-04-28 11:23 | 30.59079 | 103.95513 | 1647 ft | 16 kts | 336° |
| 2026-04-28 11:23 | 30.59181 | 103.95541 | 1647 ft | 15 kts | 21° |
| 2026-04-28 11:23 | 30.59272 | 103.95566 | 1647 ft | 12 kts | 344° |
| 2026-04-28 11:23 | 30.59316 | 103.95484 | 1646 ft | 13 kts | 292° |
| 2026-04-28 11:24 | 30.59327 | 103.95393 | 1647 ft | 10 kts | 233° |
| 2026-04-28 11:24 | 30.59251 | 103.95350 | 1648 ft | 21 kts | 201° |
| 2026-04-28 11:24 | 30.58895 | 103.95185 | 1650 ft | 89 kts | 202° |
| 2026-04-28 11:24 | 30.58131 | 103.94830 | 1648 ft | 144 kts | 202° |
| 2026-04-28 11:25 | 30.57069 | 103.94338 | 1781 ft | 177 kts | 203° |
| 2026-04-28 11:25 | 30.55919 | 103.93793 | 2346 ft | 182 kts | 205° |
| 2026-04-28 11:25 | 30.54720 | 103.93230 | 2919 ft | 191 kts | 204° |
| 2026-04-28 11:25 | 30.53433 | 103.92625 | 3258 ft | 208 kts | 204° |
| 2026-04-28 11:26 | 30.52018 | 103.91957 | 3479 ft | 232 kts | 204° |
| 2026-04-28 11:26 | 30.50441 | 103.91222 | 3824 ft | 256 kts | 203° |
| 2026-04-28 11:26 | 30.48725 | 103.90427 | 4341 ft | 273 kts | 202° |
| 2026-04-28 11:26 | 30.46941 | 103.89602 | 5118 ft | 278 kts | 201° |
| 2026-04-28 11:27 | 30.45134 | 103.88767 | 5943 ft | 282 kts | 201° |
| 2026-04-28 11:27 | 30.43288 | 103.87915 | 6681 ft | 289 kts | 201° |
| 2026-04-28 11:27 | 30.41399 | 103.87042 | 7394 ft | 295 kts | 201° |
| 2026-04-28 11:27 | 30.39470 | 103.86148 | 8117 ft | 302 kts | 201° |
| 2026-04-28 11:28 | 30.38145 | 103.85534 | 8581 ft | 306 kts | 201° |
| 2026-04-28 11:28 | 30.36146 | 103.84608 | 9275 ft | 313 kts | 201° |
| 2026-04-28 11:28 | 30.34134 | 103.83679 | 10007 ft | 318 kts | 201° |
| 2026-04-28 11:28 | 30.31278 | 103.82363 | 10448 ft | 345 kts | 201° |
| 2026-04-28 11:29 | 30.28977 | 103.81304 | 10622 ft | 368 kts | 201° |
| 2026-04-28 11:29 | 30.27350 | 103.80616 | 10722 ft | 383 kts | 196° |
| 2026-04-28 11:29 | 30.24694 | 103.80008 | 10958 ft | 395 kts | 184° |
| 2026-04-28 11:29 | 30.21951 | 103.80009 | 11022 ft | 393 kts | 173° |
| 2026-04-28 11:30 | 30.19291 | 103.80654 | 11012 ft | 390 kts | 161° |
| 2026-04-28 11:30 | 30.14400 | 103.83278 | 11014 ft | 388 kts | 152° |
| 2026-04-28 11:30 | 30.11987 | 103.84675 | 11014 ft | 388 kts | 152° |
| 2026-04-28 11:31 | 30.09573 | 103.86068 | 11035 ft | 388 kts | 151° |
| 2026-04-28 11:31 | 30.07149 | 103.87465 | 11018 ft | 391 kts | 150° |
| 2026-04-28 11:31 | 30.04712 | 103.88878 | 11019 ft | 392 kts | 150° |
| 2026-04-28 11:31 | 30.01451 | 103.90780 | 11018 ft | 393 kts | 150° |
| 2026-04-28 11:32 | 29.99839 | 103.91722 | 11019 ft | 392 kts | 150° |
| 2026-04-28 11:32 | 29.97402 | 103.93143 | 11017 ft | 392 kts | 150° |
| 2026-04-28 11:32 | 29.94967 | 103.94562 | 11017 ft | 393 kts | 150° |
| 2026-04-28 11:32 | 29.92529 | 103.95984 | 11020 ft | 394 kts | 150° |
| 2026-04-28 11:33 | 29.90079 | 103.97414 | 11015 ft | 394 kts | 150° |
| 2026-04-28 11:33 | 29.87632 | 103.98842 | 11010 ft | 394 kts | 150° |
| 2026-04-28 11:33 | 29.85186 | 104.00266 | 11022 ft | 394 kts | 151° |
| 2026-04-28 11:33 | 29.82741 | 104.01687 | 11022 ft | 394 kts | 151° |
| 2026-04-28 11:34 | 29.80305 | 104.03136 | 11019 ft | 393 kts | 147° |
| 2026-04-28 11:34 | 29.78091 | 104.04947 | 11021 ft | 390 kts | 136° |
| 2026-04-28 11:34 | 29.76213 | 104.07172 | 11021 ft | 386 kts | 125° |
| 2026-04-28 11:34 | 29.74728 | 104.09673 | 11021 ft | 383 kts | 117° |
| 2026-04-28 11:35 | 29.73335 | 104.12284 | 11019 ft | 383 kts | 118° |
| 2026-04-28 11:35 | 29.71934 | 104.14888 | 11018 ft | 383 kts | 118° |
| 2026-04-28 11:35 | 29.70524 | 104.17500 | 11151 ft | 388 kts | 118° |
| 2026-04-28 11:35 | 29.69099 | 104.20137 | 11887 ft | 389 kts | 118° |
| 2026-04-28 11:36 | 29.67646 | 104.22823 | 12597 ft | 392 kts | 118° |
| 2026-04-28 11:36 | 29.66218 | 104.25460 | 13233 ft | 396 kts | 118° |
| 2026-04-28 11:36 | 29.64754 | 104.28158 | 13843 ft | 400 kts | 118° |
| 2026-04-28 11:36 | 29.63274 | 104.30890 | 14369 ft | 405 kts | 119° |
| 2026-04-28 11:37 | 29.61781 | 104.33650 | 14896 ft | 408 kts | 119° |
| 2026-04-28 11:37 | 29.60275 | 104.36437 | 15413 ft | 413 kts | 120° |
| 2026-04-28 11:37 | 29.58754 | 104.39246 | 15927 ft | 416 kts | 120° |
| 2026-04-28 11:37 | 29.57216 | 104.42086 | 16439 ft | 420 kts | 120° |
| 2026-04-28 11:38 | 29.55665 | 104.44947 | 16947 ft | 423 kts | 120° |
| 2026-04-28 11:38 | 29.54100 | 104.47831 | 17435 ft | 427 kts | 121° |
| 2026-04-28 11:38 | 29.52520 | 104.50738 | 17893 ft | 431 kts | 121° |
| 2026-04-28 11:38 | 29.50925 | 104.53670 | 18398 ft | 435 kts | 121° |
| 2026-04-28 11:39 | 29.49319 | 104.56620 | 18792 ft | 438 kts | 121° |
| 2026-04-28 11:39 | 29.47695 | 104.59597 | 19196 ft | 441 kts | 122° |
| 2026-04-28 11:39 | 29.46064 | 104.62591 | 19601 ft | 444 kts | 122° |
| 2026-04-28 11:39 | 29.44424 | 104.65604 | 20000 ft | 447 kts | 122° |
| 2026-04-28 11:40 | 29.42773 | 104.68640 | 20400 ft | 450 kts | 122° |
| 2026-04-28 11:40 | 29.41111 | 104.71693 | 20797 ft | 452 kts | 123° |
| 2026-04-28 11:40 | 29.39435 | 104.74759 | 21185 ft | 455 kts | 123° |
| 2026-04-28 11:40 | 29.37743 | 104.77843 | 21564 ft | 458 kts | 123° |
| 2026-04-28 11:41 | 29.36015 | 104.80916 | 21918 ft | 460 kts | 127° |
| 2026-04-28 11:41 | 29.33996 | 104.83691 | 22282 ft | 460 kts | 137° |
| 2026-04-28 11:41 | 29.31589 | 104.86093 | 22631 ft | 459 kts | 147° |
| 2026-04-28 11:41 | 29.28885 | 104.88010 | 22978 ft | 457 kts | 156° |
| 2026-04-28 11:42 | 29.25992 | 104.89510 | 23329 ft | 457 kts | 160° |
| 2026-04-28 11:42 | 29.23080 | 104.90970 | 23702 ft | 458 kts | 160° |
| 2026-04-28 11:42 | 29.20164 | 104.92438 | 24011 ft | 460 kts | 160° |
| 2026-04-28 11:42 | 29.17232 | 104.93918 | 24277 ft | 462 kts | 160° |
| 2026-04-28 11:43 | 29.14285 | 104.95407 | 24559 ft | 463 kts | 160° |
| 2026-04-28 11:43 | 29.11329 | 104.96900 | 24846 ft | 465 kts | 160° |
| 2026-04-28 11:43 | 29.08368 | 104.98398 | 25132 ft | 466 kts | 160° |
| 2026-04-28 11:43 | 29.05396 | 104.99900 | 25412 ft | 467 kts | 160° |
| 2026-04-28 11:44 | 29.02418 | 105.01400 | 25691 ft | 469 kts | 160° |
| 2026-04-28 11:44 | 28.99432 | 105.02904 | 25967 ft | 470 kts | 160° |
| 2026-04-28 11:44 | 28.96439 | 105.04411 | 26221 ft | 471 kts | 159° |
| 2026-04-28 11:44 | 28.93432 | 105.05923 | 26488 ft | 472 kts | 159° |
| 2026-04-28 11:45 | 28.90421 | 105.07432 | 26746 ft | 474 kts | 159° |
| 2026-04-28 11:45 | 28.87398 | 105.08946 | 27010 ft | 475 kts | 159° |
| 2026-04-28 11:45 | 28.84372 | 105.10459 | 27334 ft | 474 kts | 159° |
| 2026-04-28 11:45 | 28.81352 | 105.11968 | 27738 ft | 473 kts | 160° |
| 2026-04-28 11:46 | 28.78349 | 105.13465 | 28152 ft | 471 kts | 159° |
| 2026-04-28 11:46 | 28.75381 | 105.15035 | 28548 ft | 470 kts | 157° |
| 2026-04-28 11:46 | 28.72470 | 105.16729 | 28946 ft | 469 kts | 155° |
| 2026-04-28 11:46 | 28.69604 | 105.18503 | 29351 ft | 468 kts | 154° |
| 2026-04-28 11:47 | 28.66767 | 105.20306 | 29733 ft | 467 kts | 154° |
| 2026-04-28 11:47 | 28.63927 | 105.22107 | 30046 ft | 467 kts | 154° |
| 2026-04-28 11:47 | 28.61112 | 105.23861 | 30359 ft | 467 kts | 155° |
| 2026-04-28 11:47 | 28.58250 | 105.25610 | 30659 ft | 466 kts | 155° |
| 2026-04-28 11:48 | 28.55349 | 105.27357 | 30956 ft | 466 kts | 156° |
| 2026-04-28 11:48 | 28.52515 | 105.29053 | 31113 ft | 467 kts | 155° |
| 2026-04-28 11:48 | 28.46780 | 105.32487 | 31150 ft | 465 kts | 155° |
| 2026-04-28 11:49 | 28.41056 | 105.35929 | 31157 ft | 465 kts | 155° |
| 2026-04-28 11:49 | 28.35340 | 105.39374 | 31145 ft | 466 kts | 156° |
| 2026-04-28 11:50 | 28.29587 | 105.42833 | 31155 ft | 469 kts | 156° |
| 2026-04-28 11:50 | 28.23818 | 105.46290 | 31155 ft | 469 kts | 156° |
| 2026-04-28 11:51 | 28.18046 | 105.49760 | 31156 ft | 469 kts | 156° |
| 2026-04-28 11:51 | 28.12275 | 105.53219 | 31147 ft | 469 kts | 156° |
| 2026-04-28 11:52 | 28.06457 | 105.56538 | 31147 ft | 466 kts | 162° |
| 2026-04-28 11:52 | 28.00234 | 105.58195 | 31148 ft | 457 kts | 176° |
| 2026-04-28 11:53 | 27.93927 | 105.59179 | 31141 ft | 457 kts | 176° |
| 2026-04-28 11:53 | 27.87619 | 105.60181 | 31142 ft | 458 kts | 176° |
| 2026-04-28 11:54 | 27.81329 | 105.61328 | 31138 ft | 461 kts | 169° |
| 2026-04-28 11:54 | 27.75369 | 105.64146 | 31123 ft | 469 kts | 156° |
| 2026-04-28 11:55 | 27.69624 | 105.67665 | 31131 ft | 470 kts | 157° |
| 2026-04-28 11:55 | 27.63831 | 105.71054 | 31126 ft | 468 kts | 159° |
| 2026-04-28 11:56 | 27.57942 | 105.74183 | 31130 ft | 467 kts | 160° |
| 2026-04-28 11:56 | 27.52041 | 105.77267 | 31128 ft | 468 kts | 160° |
| 2026-04-28 11:57 | 27.46160 | 105.80411 | 31119 ft | 468 kts | 159° |
| 2026-04-28 11:57 | 27.40330 | 105.83571 | 31121 ft | 468 kts | 159° |
| 2026-04-28 11:58 | 27.34460 | 105.86746 | 31111 ft | 468 kts | 160° |
| 2026-04-28 11:58 | 27.28587 | 105.89904 | 31111 ft | 468 kts | 160° |
| 2026-04-28 11:59 | 27.22709 | 105.93058 | 31105 ft | 468 kts | 160° |
| 2026-04-28 11:59 | 27.16835 | 105.96203 | 31104 ft | 468 kts | 160° |
| 2026-04-28 12:00 | 27.10956 | 105.99355 | 31104 ft | 469 kts | 160° |
| 2026-04-28 12:00 | 27.05225 | 106.02923 | 31103 ft | 478 kts | 148° |
| 2026-04-28 12:01 | 27.00559 | 106.08343 | 31092 ft | 490 kts | 131° |
| 2026-04-28 12:01 | 26.96463 | 106.14448 | 31092 ft | 490 kts | 131° |
| 2026-04-28 12:02 | 26.92360 | 106.20544 | 31094 ft | 490 kts | 131° |
| 2026-04-28 12:02 | 26.88249 | 106.26635 | 31094 ft | 490 kts | 131° |
| 2026-04-28 12:03 | 26.84155 | 106.32682 | 31086 ft | 490 kts | 131° |
| 2026-04-28 12:03 | 26.80015 | 106.38795 | 31078 ft | 489 kts | 132° |
| 2026-04-28 12:04 | 26.75907 | 106.44861 | 31094 ft | 489 kts | 132° |
| 2026-04-28 12:04 | 26.71825 | 106.50877 | 31089 ft | 489 kts | 132° |
| 2026-04-28 12:05 | 26.67714 | 106.56927 | 31089 ft | 488 kts | 132° |
| 2026-04-28 12:05 | 26.63601 | 106.62962 | 31083 ft | 488 kts | 132° |
| 2026-04-28 12:06 | 26.59484 | 106.69006 | 31084 ft | 488 kts | 132° |
| 2026-04-28 12:06 | 26.55360 | 106.75051 | 31086 ft | 490 kts | 132° |
| 2026-04-28 12:07 | 26.51049 | 106.80917 | 31085 ft | 485 kts | 140° |
| 2026-04-28 12:07 | 26.46253 | 106.86209 | 31085 ft | 485 kts | 140° |
| 2026-04-28 12:08 | 26.41440 | 106.91473 | 31063 ft | 485 kts | 140° |
| 2026-04-28 12:08 | 26.36628 | 106.96741 | 31062 ft | 485 kts | 140° |
| 2026-04-28 12:09 | 26.31821 | 107.02015 | 31052 ft | 485 kts | 140° |
| 2026-04-28 12:09 | 26.27050 | 107.07253 | 31042 ft | 485 kts | 140° |
| 2026-04-28 12:10 | 26.22241 | 107.12539 | 31043 ft | 486 kts | 140° |
| 2026-04-28 12:10 | 26.17427 | 107.17823 | 31028 ft | 486 kts | 140° |
| 2026-04-28 12:11 | 26.12611 | 107.23098 | 31019 ft | 486 kts | 140° |
| 2026-04-28 12:11 | 26.07794 | 107.28375 | 31011 ft | 486 kts | 139° |
| 2026-04-28 12:12 | 26.02980 | 107.33656 | 31003 ft | 486 kts | 139° |
| 2026-04-28 12:12 | 25.98156 | 107.38918 | 30997 ft | 486 kts | 140° |
| 2026-04-28 12:13 | 25.93331 | 107.44167 | 31006 ft | 486 kts | 139° |
| 2026-04-28 12:13 | 25.88501 | 107.49426 | 30986 ft | 486 kts | 139° |
| 2026-04-28 12:14 | 25.83676 | 107.54683 | 30978 ft | 486 kts | 139° |
| 2026-04-28 12:14 | 25.78843 | 107.59946 | 30977 ft | 486 kts | 139° |
| 2026-04-28 12:15 | 25.74003 | 107.65193 | 30969 ft | 487 kts | 139° |
| 2026-04-28 12:15 | 25.69164 | 107.70449 | 30972 ft | 487 kts | 139° |
| 2026-04-28 12:16 | 25.65159 | 107.74848 | 30954 ft | 487 kts | 138° |
| 2026-04-28 12:16 | 25.59537 | 107.81037 | 30955 ft | 487 kts | 139° |
| 2026-04-28 12:17 | 25.54710 | 107.86309 | 30952 ft | 487 kts | 139° |
| 2026-04-28 12:17 | 25.49861 | 107.91545 | 30931 ft | 486 kts | 141° |
| 2026-04-28 12:18 | 25.44316 | 107.95519 | 30931 ft | 475 kts | 161° |
| 2026-04-28 12:18 | 25.38003 | 107.97247 | 30932 ft | 464 kts | 178° |
| 2026-04-28 12:19 | 25.31577 | 107.98024 | 30917 ft | 464 kts | 178° |
| 2026-04-28 12:19 | 25.26239 | 107.98676 | 30917 ft | 464 kts | 178° |
| 2026-04-28 12:20 | 25.19816 | 107.99460 | 30903 ft | 464 kts | 178° |
| 2026-04-28 12:20 | 25.12313 | 108.00376 | 30876 ft | 464 kts | 178° |
| 2026-04-28 12:21 | 25.06986 | 108.01030 | 30887 ft | 462 kts | 178° |
| 2026-04-28 12:21 | 25.00598 | 108.01808 | 30876 ft | 462 kts | 178° |
| 2026-04-28 12:22 | 24.94206 | 108.02578 | 30865 ft | 462 kts | 178° |
| 2026-04-28 12:22 | 24.87817 | 108.03354 | 30848 ft | 462 kts | 178° |
| 2026-04-28 12:23 | 24.81422 | 108.04135 | 30844 ft | 461 kts | 177° |
| 2026-04-28 12:23 | 24.75057 | 108.04908 | 30845 ft | 460 kts | 178° |
| 2026-04-28 12:24 | 24.68697 | 108.05672 | 30848 ft | 460 kts | 178° |
| 2026-04-28 12:24 | 24.62343 | 108.06439 | 30843 ft | 460 kts | 177° |
| 2026-04-28 12:25 | 24.55983 | 108.07213 | 30839 ft | 459 kts | 178° |
| 2026-04-28 12:25 | 24.49620 | 108.07977 | 30830 ft | 461 kts | 176° |
| 2026-04-28 12:26 | 24.43229 | 108.08754 | 30830 ft | 463 kts | 176° |
| 2026-04-28 12:26 | 24.36870 | 108.09534 | 30828 ft | 463 kts | 176° |
| 2026-04-28 12:27 | 24.30474 | 108.10316 | 30824 ft | 462 kts | 176° |
| 2026-04-28 12:27 | 24.24075 | 108.11096 | 30819 ft | 463 kts | 176° |
| 2026-04-28 12:28 | 24.17681 | 108.11863 | 30823 ft | 462 kts | 176° |
| 2026-04-28 12:28 | 24.11281 | 108.12635 | 30812 ft | 462 kts | 176° |
| 2026-04-28 12:29 | 24.01694 | 108.13798 | 30811 ft | 462 kts | 176° |
| 2026-04-28 12:30 | 23.95301 | 108.14569 | 30814 ft | 462 kts | 176° |
| 2026-04-28 12:30 | 23.89004 | 108.15986 | 30805 ft | 469 kts | 158° |
| 2026-04-28 12:30 | 23.86198 | 108.17843 | 30805 ft | 475 kts | 143° |
| 2026-04-28 12:31 | 23.83908 | 108.20456 | 30807 ft | 480 kts | 127° |
| 2026-04-28 12:31 | 23.82296 | 108.23662 | 30804 ft | 485 kts | 112° |
| 2026-04-28 12:31 | 23.81487 | 108.27237 | 30804 ft | 488 kts | 97° |
| 2026-04-28 12:32 | 23.81027 | 108.34653 | 30809 ft | 490 kts | 95° |
| 2026-04-28 12:32 | 23.80618 | 108.42081 | 30809 ft | 490 kts | 95° |
| 2026-04-28 12:33 | 23.80206 | 108.49515 | 30800 ft | 491 kts | 94° |
| 2026-04-28 12:33 | 23.79788 | 108.56961 | 30800 ft | 491 kts | 94° |
| 2026-04-28 12:34 | 23.79358 | 108.64398 | 30796 ft | 491 kts | 95° |
| 2026-04-28 12:34 | 23.78911 | 108.71786 | 30787 ft | 491 kts | 95° |
| 2026-04-28 12:35 | 23.78468 | 108.79222 | 30786 ft | 491 kts | 95° |
| 2026-04-28 12:35 | 23.78028 | 108.86664 | 30785 ft | 491 kts | 95° |
| 2026-04-28 12:36 | 23.77583 | 108.94104 | 30781 ft | 491 kts | 95° |
| 2026-04-28 12:36 | 23.77132 | 109.01550 | 30780 ft | 491 kts | 95° |
| 2026-04-28 12:37 | 23.76671 | 109.08995 | 30777 ft | 491 kts | 95° |
| 2026-04-28 12:37 | 23.75983 | 109.16412 | 30778 ft | 492 kts | 103° |
| 2026-04-28 12:38 | 23.74524 | 109.23722 | 30779 ft | 493 kts | 104° |
| 2026-04-28 12:38 | 23.73042 | 109.31027 | 30781 ft | 493 kts | 104° |
| 2026-04-28 12:39 | 23.71560 | 109.38336 | 30783 ft | 493 kts | 104° |
| 2026-04-28 12:39 | 23.70083 | 109.45644 | 30783 ft | 493 kts | 104° |
| 2026-04-28 12:40 | 23.68605 | 109.52948 | 30788 ft | 493 kts | 104° |
| 2026-04-28 12:40 | 23.67124 | 109.60256 | 30786 ft | 493 kts | 104° |
| 2026-04-28 12:41 | 23.65626 | 109.67556 | 30794 ft | 493 kts | 105° |
| 2026-04-28 12:41 | 23.64115 | 109.74847 | 30794 ft | 493 kts | 105° |
| 2026-04-28 12:42 | 23.62602 | 109.82142 | 30801 ft | 493 kts | 105° |
| 2026-04-28 12:42 | 23.61094 | 109.89438 | 30810 ft | 494 kts | 105° |
| 2026-04-28 12:43 | 23.59588 | 109.96742 | 30812 ft | 493 kts | 105° |
| 2026-04-28 12:43 | 23.58071 | 110.04035 | 30811 ft | 494 kts | 105° |
| 2026-04-28 12:44 | 23.56544 | 110.11332 | 30821 ft | 494 kts | 105° |
| 2026-04-28 12:44 | 23.55019 | 110.18624 | 30818 ft | 493 kts | 105° |
| 2026-04-28 12:45 | 23.53501 | 110.25860 | 30825 ft | 493 kts | 105° |
| 2026-04-28 12:45 | 23.51958 | 110.33141 | 30826 ft | 493 kts | 105° |
| 2026-04-28 12:46 | 23.50422 | 110.40428 | 30824 ft | 493 kts | 105° |
| 2026-04-28 12:46 | 23.48941 | 110.47726 | 30819 ft | 494 kts | 105° |
| 2026-04-28 12:47 | 23.47478 | 110.55034 | 30828 ft | 494 kts | 105° |
| 2026-04-28 12:47 | 23.46005 | 110.62340 | 30832 ft | 494 kts | 105° |
| 2026-04-28 12:48 | 23.44512 | 110.69632 | 30835 ft | 494 kts | 105° |
| 2026-04-28 12:48 | 23.43005 | 110.76928 | 30840 ft | 494 kts | 105° |
| 2026-04-28 12:49 | 23.41461 | 110.84217 | 30839 ft | 497 kts | 106° |
| 2026-04-28 12:49 | 23.39894 | 110.91562 | 30841 ft | 499 kts | 106° |
| 2026-04-28 12:50 | 23.38335 | 110.98917 | 30840 ft | 499 kts | 106° |
| 2026-04-28 12:50 | 23.36782 | 111.06276 | 30843 ft | 499 kts | 106° |
| 2026-04-28 12:51 | 23.35213 | 111.13631 | 30843 ft | 499 kts | 106° |
| 2026-04-28 12:51 | 23.33651 | 111.20966 | 30843 ft | 503 kts | 106° |
| 2026-04-28 12:52 | 23.32134 | 111.28409 | 30848 ft | 504 kts | 105° |
| 2026-04-28 12:52 | 23.30643 | 111.35857 | 30848 ft | 504 kts | 105° |
| 2026-04-28 12:53 | 23.29118 | 111.43350 | 30855 ft | 504 kts | 105° |
| 2026-04-28 12:53 | 23.27588 | 111.50734 | 30854 ft | 504 kts | 106° |
| 2026-04-28 12:54 | 23.26036 | 111.58159 | 30862 ft | 504 kts | 106° |
| 2026-04-28 12:54 | 23.24454 | 111.65583 | 30860 ft | 504 kts | 106° |
| 2026-04-28 12:55 | 23.22872 | 111.72997 | 30858 ft | 504 kts | 106° |
| 2026-04-28 12:55 | 23.21303 | 111.80419 | 30858 ft | 504 kts | 106° |
| 2026-04-28 12:56 | 23.19738 | 111.87859 | 30863 ft | 506 kts | 106° |
| 2026-04-28 12:56 | 23.18194 | 111.95315 | 30864 ft | 505 kts | 105° |
| 2026-04-28 12:57 | 23.16650 | 112.02770 | 30865 ft | 506 kts | 105° |
| 2026-04-28 12:57 | 23.15090 | 112.10224 | 30870 ft | 506 kts | 106° |
| 2026-04-28 12:58 | 23.13526 | 112.17682 | 30872 ft | 507 kts | 105° |
| 2026-04-28 12:58 | 23.11960 | 112.25165 | 30868 ft | 508 kts | 105° |
| 2026-04-28 12:59 | 23.10379 | 112.32650 | 30867 ft | 508 kts | 105° |
| 2026-04-28 12:59 | 23.08796 | 112.40131 | 30867 ft | 508 kts | 105° |
| 2026-04-28 13:00 | 23.07240 | 112.47620 | 30869 ft | 509 kts | 101° |
| 2026-04-28 13:00 | 23.06983 | 112.55331 | 30874 ft | 512 kts | 91° |
| 2026-04-28 13:01 | 23.06985 | 112.63064 | 30867 ft | 512 kts | 91° |
| 2026-04-28 13:01 | 23.06972 | 112.70795 | 30868 ft | 512 kts | 91° |
| 2026-04-28 13:02 | 23.06945 | 112.78529 | 30863 ft | 512 kts | 91° |
| 2026-04-28 13:02 | 23.06875 | 112.86240 | 30868 ft | 510 kts | 91° |
| 2026-04-28 13:03 | 23.06798 | 112.93931 | 30869 ft | 509 kts | 91° |
| 2026-04-28 13:03 | 23.06730 | 113.01572 | 30868 ft | 509 kts | 91° |
| 2026-04-28 13:04 | 23.07686 | 113.09110 | 30867 ft | 508 kts | 63° |
| 2026-04-28 13:04 | 23.09617 | 113.12278 | 30864 ft | 502 kts | 43° |
| 2026-04-28 13:04 | 23.12349 | 113.14568 | 30871 ft | 493 kts | 23° |
| 2026-04-28 13:04 | 23.15547 | 113.15736 | 30869 ft | 482 kts | 4° |
| 2026-04-28 13:05 | 23.18858 | 113.16172 | 30865 ft | 475 kts | 5° |
| 2026-04-28 13:05 | 23.21963 | 113.17233 | 30865 ft | 466 kts | 25° |
| 2026-04-28 13:05 | 23.24526 | 113.19310 | 30865 ft | 456 kts | 44° |
| 2026-04-28 13:05 | 23.26439 | 113.22003 | 30866 ft | 448 kts | 57° |
| 2026-04-28 13:06 | 23.27947 | 113.24965 | 30866 ft | 446 kts | 62° |
| 2026-04-28 13:06 | 23.30762 | 113.30966 | 30865 ft | 445 kts | 59° |
| 2026-04-28 13:07 | 23.34053 | 113.36656 | 30866 ft | 444 kts | 53° |
| 2026-04-28 13:07 | 23.38172 | 113.41767 | 30866 ft | 453 kts | 34° |
| 2026-04-28 13:08 | 23.41660 | 113.45793 | 30755 ft | 436 kts | 64° |
| 2026-04-28 13:08 | 23.42489 | 113.48897 | 30639 ft | 423 kts | 88° |
| 2026-04-28 13:08 | 23.41842 | 113.52944 | 30467 ft | 398 kts | 121° |
| 2026-04-28 13:08 | 23.40864 | 113.54586 | 30311 ft | 386 kts | 137° |
| 2026-04-28 13:09 | 23.38303 | 113.57267 | 30016 ft | 381 kts | 141° |
| 2026-04-28 13:09 | 23.37048 | 113.58600 | 29849 ft | 381 kts | 140° |
| 2026-04-28 13:09 | 23.35116 | 113.60560 | 29578 ft | 377 kts | 146° |
| 2026-04-28 13:09 | 23.32962 | 113.62102 | 29308 ft | 366 kts | 160° |
| 2026-04-28 13:10 | 23.30591 | 113.62942 | 29044 ft | 354 kts | 176° |
| 2026-04-28 13:10 | 23.28171 | 113.63080 | 28784 ft | 344 kts | 190° |
| 2026-04-28 13:10 | 23.25836 | 113.62658 | 28527 ft | 337 kts | 201° |
| 2026-04-28 13:10 | 23.23664 | 113.61781 | 28271 ft | 330 kts | 211° |
| 2026-04-28 13:11 | 23.21716 | 113.60508 | 28014 ft | 324 kts | 221° |
| 2026-04-28 13:11 | 23.20048 | 113.58890 | 27763 ft | 320 kts | 230° |
| 2026-04-28 13:11 | 23.18601 | 113.57068 | 27513 ft | 317 kts | 234° |
| 2026-04-28 13:11 | 23.17285 | 113.55160 | 27265 ft | 315 kts | 237° |
| 2026-04-28 13:12 | 23.16032 | 113.53219 | 27009 ft | 313 kts | 238° |
| 2026-04-28 13:12 | 23.14806 | 113.51282 | 26776 ft | 310 kts | 238° |
| 2026-04-28 13:12 | 23.13583 | 113.49356 | 26530 ft | 309 kts | 237° |
| 2026-04-28 13:12 | 23.12354 | 113.47444 | 26281 ft | 308 kts | 237° |
| 2026-04-28 13:13 | 23.11180 | 113.45517 | 26042 ft | 305 kts | 243° |
| 2026-04-28 13:13 | 23.10297 | 113.43439 | 25808 ft | 302 kts | 252° |
| 2026-04-28 13:13 | 23.09757 | 113.41247 | 25582 ft | 300 kts | 261° |
| 2026-04-28 13:13 | 23.09582 | 113.38996 | 25351 ft | 299 kts | 270° |
| 2026-04-28 13:14 | 23.09775 | 113.36755 | 25122 ft | 299 kts | 279° |
| 2026-04-28 13:14 | 23.10331 | 113.34573 | 24885 ft | 300 kts | 288° |
| 2026-04-28 13:14 | 23.11236 | 113.32526 | 24666 ft | 302 kts | 298° |
| 2026-04-28 13:14 | 23.12470 | 113.30671 | 24443 ft | 305 kts | 307° |
| 2026-04-28 13:15 | 23.14004 | 113.29068 | 24218 ft | 308 kts | 317° |
| 2026-04-28 13:15 | 23.15797 | 113.27773 | 23996 ft | 312 kts | 327° |
| 2026-04-28 13:15 | 23.17806 | 113.26843 | 23778 ft | 316 kts | 338° |
| 2026-04-28 13:15 | 23.19964 | 113.26335 | 23560 ft | 320 kts | 349° |
| 2026-04-28 13:16 | 23.22207 | 113.26282 | 23353 ft | 326 kts | 360° |
| 2026-04-28 13:16 | 23.24454 | 113.26699 | 23093 ft | 331 kts | 11° |
| 2026-04-28 13:16 | 23.26613 | 113.27593 | 22834 ft | 334 kts | 23° |
| 2026-04-28 13:16 | 23.28563 | 113.28926 | 22581 ft | 337 kts | 36° |
| 2026-04-28 13:17 | 23.30289 | 113.30699 | 22324 ft | 338 kts | 46° |
| 2026-04-28 13:17 | 23.31799 | 113.32662 | 22059 ft | 338 kts | 51° |
| 2026-04-28 13:17 | 23.33178 | 113.34696 | 21818 ft | 339 kts | 53° |
| 2026-04-28 13:17 | 23.34519 | 113.36798 | 21567 ft | 338 kts | 54° |
| 2026-04-28 13:18 | 23.35842 | 113.38908 | 21142 ft | 339 kts | 54° |
| 2026-04-28 13:18 | 23.37200 | 113.41041 | 20359 ft | 346 kts | 51° |
| 2026-04-28 13:18 | 23.38972 | 113.42907 | 19467 ft | 359 kts | 31° |
| 2026-04-28 13:18 | 23.41195 | 113.44144 | 18516 ft | 361 kts | 17° |
| 2026-04-28 13:19 | 23.43618 | 113.44903 | 17515 ft | 364 kts | 9° |
| 2026-04-28 13:19 | 23.46115 | 113.45415 | 16482 ft | 367 kts | 6° |
| 2026-04-28 13:19 | 23.48652 | 113.45866 | 15482 ft | 371 kts | 6° |
| 2026-04-28 13:19 | 23.51199 | 113.46348 | 14516 ft | 373 kts | 5° |
| 2026-04-28 13:20 | 23.53763 | 113.46404 | 13563 ft | 366 kts | 347° |
| 2026-04-28 13:20 | 23.56167 | 113.45631 | 12527 ft | 358 kts | 331° |
| 2026-04-28 13:20 | 23.58413 | 113.44480 | 11508 ft | 356 kts | 330° |
| 2026-04-28 13:20 | 23.60640 | 113.43319 | 10534 ft | 354 kts | 330° |
| 2026-04-28 13:21 | 23.62847 | 113.42156 | 9567 ft | 351 kts | 330° |
| 2026-04-28 13:21 | 23.65036 | 113.40995 | 8524 ft | 348 kts | 329° |
| 2026-04-28 13:21 | 23.66921 | 113.39436 | 7522 ft | 336 kts | 305° |
| 2026-04-28 13:21 | 23.67895 | 113.37200 | 6554 ft | 324 kts | 277° |
| 2026-04-28 13:22 | 23.67751 | 113.34813 | 5575 ft | 314 kts | 247° |
| 2026-04-28 13:22 | 23.66529 | 113.32975 | 5118 ft | 291 kts | 215° |
| 2026-04-28 13:22 | 23.64746 | 113.32258 | 4975 ft | 265 kts | 182° |
| 2026-04-28 13:22 | 23.63049 | 113.32753 | 4886 ft | 246 kts | 153° |
| 2026-04-28 13:23 | 23.61749 | 113.33835 | 4891 ft | 229 kts | 141° |
| 2026-04-28 13:23 | 23.60552 | 113.34902 | 4894 ft | 210 kts | 154° |
| 2026-04-28 13:23 | 23.59280 | 113.35503 | 4895 ft | 195 kts | 168° |
| 2026-04-28 13:23 | 23.57960 | 113.35747 | 4905 ft | 191 kts | 180° |
| 2026-04-28 13:24 | 23.56642 | 113.35676 | 4893 ft | 189 kts | 191° |
| 2026-04-28 13:24 | 23.55365 | 113.35350 | 4900 ft | 189 kts | 195° |
| 2026-04-28 13:24 | 23.54137 | 113.35015 | 4889 ft | 171 kts | 195° |
| 2026-04-28 13:24 | 23.52944 | 113.34691 | 4181 ft | 184 kts | 195° |
| 2026-04-28 13:25 | 23.51672 | 113.34343 | 3544 ft | 190 kts | 194° |
| 2026-04-28 13:25 | 23.50376 | 113.34032 | 2882 ft | 194 kts | 192° |
| 2026-04-28 13:25 | 23.49041 | 113.33720 | 2201 ft | 196 kts | 193° |
| 2026-04-28 13:25 | 23.47772 | 113.33294 | 1682 ft | 191 kts | 197° |
| 2026-04-28 13:26 | 23.46508 | 113.32901 | 1133 ft | 188 kts | 189° |
| 2026-04-28 13:26 | 23.45276 | 113.32620 | 928 ft | 173 kts | 192° |
| 2026-04-28 13:26 | 23.44161 | 113.32311 | 796 ft | 157 kts | 193° |
| 2026-04-28 13:26 | 23.43127 | 113.32022 | 473 ft | 153 kts | 194° |
| 2026-04-28 13:27 | 23.42125 | 113.31756 | 283 ft | 145 kts | 192° |
| 2026-04-28 13:27 | 23.41152 | 113.31501 | 139 ft | 143 kts | 193° |
| 2026-04-28 13:27 | 23.40211 | 113.31246 | 55 ft | 132 kts | 191° |
| 2026-04-28 13:27 | 23.39444 | 113.31041 | 58 ft | 90 kts | 194° |
| 2026-04-28 13:28 | 23.39004 | 113.30922 | 59 ft | 40 kts | 194° |
| 2026-04-28 13:28 | 23.38892 | 113.30892 | 55 ft | 1 kts | 194° |
| 2026-04-28 13:28 | 23.38856 | 113.30882 | 55 ft | 12 kts | 194° |
| 2026-04-28 13:28 | 23.38743 | 113.30846 | 54 ft | 19 kts | 201° |
| 2026-04-28 13:29 | 23.38627 | 113.30763 | 59 ft | 22 kts | 222° |
| 2026-04-28 13:29 | 23.38517 | 113.30640 | 55 ft | 22 kts | 256° |
| 2026-04-28 13:29 | 23.38576 | 113.30510 | 54 ft | 18 kts | 356° |
| 2026-04-28 13:29 | 23.38705 | 113.30540 | 54 ft | 20 kts | 14° |
| 2026-04-28 13:30 | 23.38846 | 113.30578 | 55 ft | 22 kts | 13° |
| 2026-04-28 13:30 | 23.39000 | 113.30618 | 53 ft | 24 kts | 13° |
| 2026-04-28 13:30 | 23.39167 | 113.30661 | 51 ft | 25 kts | 13° |
| 2026-04-28 13:30 | 23.39344 | 113.30711 | 54 ft | 27 kts | 14° |
| 2026-04-28 13:31 | 23.39696 | 113.30806 | 54 ft | 16 kts | 11° |
| 2026-04-28 13:31 | 23.39775 | 113.30741 | 54 ft | 14 kts | 332° |
| 2026-04-28 13:31 | 23.39864 | 113.30752 | 54 ft | 12 kts | 14° |
| 2026-04-28 13:32 | 23.39942 | 113.30774 | 54 ft | 11 kts | 14° |
| 2026-04-28 13:32 | 23.40021 | 113.30795 | 54 ft | 15 kts | 13° |
| 2026-04-28 13:32 | 23.40139 | 113.30823 | 55 ft | 15 kts | 0° |
| 2026-04-28 13:32 | 23.40162 | 113.30758 | 58 ft | 8 kts | 260° |
| 2026-04-28 13:33 | 23.40160 | 113.30709 | 58 ft | 6 kts | 267° |
| 2026-04-28 13:33 | 23.40159 | 113.30704 | 52 ft | 0 kts | 267° |